Nearby METAR Reports

 

KAFF - US Air Force Academy
Distance from station: W 3mi, 4km
Updated: Sun, May-19-2024 2:55pm MDT
NOT Current
Clear
Clear
 Wind from W
Wind: W 16 mph , 26 km/h, Gust: 23 mph , 37 km/h
Temperature: 77°F , 25°C
Dew Point: 23°F , -5°C
Humidity: 13%
Barometer: 29.88 inHg , 1011.9 hPa
Clouds: Clear
Visibility: 10 miles , 16 km
2024/05/19 20:55 KAFF 192055Z 28014G20KT 10SM CLR 25/M05 A2988 RMK AO2A PK WND 28030/25 SHRAE01 SLP035 P0000 60007 T02491054 55014
KCOS - Colorado Springs Municipal
Distance from station: SSE 11mi, 18km
Updated: Sun, May-19-2024 5:54pm MDT
Mostly cloudy
Mostly cloudy
 Wind from W
Wind: W 10 mph , 17 km/h
Temperature: 75°F , 24°C
Dew Point: 30°F , -1°C
Humidity: 19%
Barometer: 29.86 inHg , 1011.2 hPa
Clouds: Mostly cloudy
Visibility: 10 miles , 16 km
Cloud details: Mostly cloudy 14000 ft
2024/05/19 23:54 KCOS 192354Z 26009KT 10SM BKN140 24/M01 A2986 RMK AO2 SLP046 60000 T02391011 10267 20206 55008 $
 
KFLY - Colorado Springs Meadow
Distance from station: E 11mi, 18km
Updated: Sun, May-19-2024 5:55pm MDT
Partly cloudy
Partly cloudy
 Wind from WNW
Wind: WNW 6 mph , 9 km/h
Temperature: 73°F , 23°C
Dew Point: 28°F , -2°C
Humidity: 19%
Barometer: 29.92 inHg , 1013.2 hPa
Clouds: Partly cloudy
Visibility: 10 miles , 16 km
Cloud details: Partly cloudy 11000 ft
2024/05/19 23:55 KFLY 192355Z AUTO 30005KT 10SM SCT110 23/M02 A2992 RMK AO2 T02251025 10258 20221
KCWN - Cheyenne Mountain
Distance from station: SSW 15mi, 24km
Updated: Sun, May-19-2024 3:45pm MDT
NOT Current
Clear
Clear
 Wind from S
Wind: S 18 mph , 30 km/h, Gust: 29 mph , 46 km/h
Temperature: 75°F , 24°C
Dew Point: 27°F , -3°C
Humidity: 16%
Barometer: 29.89 inHg , 1012.2 hPa
Clouds: Clear
Visibility: 10 miles , 16 km
2024/05/19 21:45 KCWN 192145Z AUTO 18016G25KT 10SM CLR 24/M03 A2989 RMK AO2 WSHFT 39 SLP942 $
 
KMNH - Monument/Elbert
Distance from station: NNE 19mi, 30km
Updated: Sun, May-19-2024 5:55pm MDT
Partly cloudy
Partly cloudy
 Wind from NNE
Wind: NNE 10 mph , 17 km/h, Gust: 18 mph , 30 km/h
Temperature: 70°F , 21°C
Dew Point: 36°F , 2°C
Humidity: 29%
Barometer: 29.94 inHg , 1013.9 hPa
Clouds: Partly cloudy
Visibility: 10 miles , 16 km
Cloud details: Partly cloudy 11000 ft
2024/05/19 23:55 KMNH 192355Z AUTO 03009G16KT 10SM SCT110 21/02 A2994 RMK AO2
KFCS - Fort Carson
Distance from station: S 20mi, 33km
Updated: Sun, May-19-2024 3:17pm MDT
NOT Current
Mostly cloudy
Mostly cloudy
 Wind from WSW
Wind: WSW 16 mph , 26 km/h
Temperature: 81°F , 27°C
Dew Point: 23°F , -5°C
Humidity: 12%
Barometer: 29.82 inHg , 1009.8 hPa
Clouds: Mostly cloudy
Visibility: 10 miles , 16 km
Cloud details: Mostly cloudy 15000 ft
Mostly cloudy 17000 ft
2024/05/19 21:17 KFCS 192117Z AUTO 24014KT 10SM BKN150 BKN170 27/M05 A2982 RMK AO2 WSHFT 13 SLP034 $
 
KABH - Ellicot
Distance from station: ESE 29mi, 46km
Updated: Sun, May-19-2024 2:55pm MDT
NOT Current
Mostly cloudy
Mostly cloudy
 Wind from ENE
Wind: ENE 8 mph , 13 km/h
Temperature: 75°F , 24°C
Dew Point: 34°F , 1°C
Humidity: 22%
Barometer: 29.89 inHg , 1012.2 hPa
Clouds: Mostly cloudy
Visibility: 10 miles , 16 km
Cloud details: Mostly cloudy 10000 ft
2024/05/19 20:55 KABH 192055Z AUTO 07007KT 10SM BKN100 24/01 A2989 RMK AO2 PK WND 32037/24 SLP058 T02350005 56016
K1V6 - Canon City
Distance from station: SSW 41mi, 65km
Updated: Sun, May-19-2024 5:55pm MDT
Clear
Clear
 Wind from W
Wind: W 12 mph , 19 km/h
Temperature: 84°F , 29°C
Dew Point: 28°F , -2°C
Humidity: 13%
Barometer: 29.80 inHg , 1009.1 hPa
Clouds: Clear
Visibility: 10 miles , 16 km
2024/05/19 23:55 K1V6 192355Z AUTO 27010KT 10SM CLR 29/M02 A2980 RMK AO2
 
K4BM - Wilkerson Pass
Distance from station: W 41mi, 65km
Updated: Sun, May-19-2024 5:55pm MDT
Clear
Clear
 Wind from SSE
Wind: SSE 20 mph , 31 km/h, Gust: 28 mph , 44 km/h
Temperature: 55°F , 13°C
Dew Point: 19°F , -7°C
Humidity: 24%
Barometer: 30.23 inHg , 1023.7 hPa
Clouds: Clear
Visibility: 10 miles , 16 km
2024/05/19 23:55 K4BM 192355Z AUTO 16017G24KT 10SM CLR 13/M07 A3023 RMK AO2
KAPA - Denver/Arapahoe
Distance from station: N 42mi, 68km
Updated: Sun, May-19-2024 5:53pm MDT
Mostly cloudy
Mostly cloudy
 Wind from N
Wind: N 14 mph , 22 km/h
Temperature: 73°F , 23°C
Dew Point: 34°F , 1°C
Humidity: 23%
Barometer: 29.84 inHg , 1010.5 hPa
Clouds: Mostly cloudy
Visibility: 10 miles , 16 km
Cloud details: Mostly cloudy 7000 ft
Mostly cloudy 12000 ft
Mostly cloudy 20000 ft
2024/05/19 23:53 KAPA 192353Z 01012KT 10SM BKN070 BKN120 BKN200 23/01 A2984 RMK AO2 SLP044 60000 T02280011 10261 20206 53004
 
KPUB - Pueblo
Distance from station: SSE 49mi, 79km
Updated: Sun, May-19-2024 5:53pm MDT
Clear
Clear
 Wind from W
Wind: W 9 mph , 15 km/h
Temperature: 86°F , 30°C
Dew Point: 32°F , 0°C
Humidity: 14%
Barometer: 29.75 inHg , 1007.5 hPa
Clouds: Clear
Visibility: 10 miles , 16 km
2024/05/19 23:53 KPUB 192353Z 28008KT 10SM CLR 30/00 A2975 RMK AO2 SLP014 T03000000 10306 20233 56012